Topeka, KS

8:43 PM CST on February 01, 2015 (GMT -0600)
Elmhurst | Change Station
CLOSE
Current Station
Personal Weather Station
Location: Topeka, KS
Elevation: 953 ft
Nearby Weather Stations

Elev 953 ft 39.05 °N, 95.70 °W | Updated 3 minutes ago

Light Snow
Light Snow
13.2 °F
Feels Like 0 °F
N
10.0
Wind Variable Wind from NNW

Today
High -- | Low -- °F
--% Chance of Precip.
Yesterday
High -- | Low -- °F
Precip. -- in
7:29 AM 5:43 PM
Waxing Gibbous, 97% visible
Pressure 30.29 in
Visibility 7.0 miles
Clouds Few 2400 ft
Mostly Cloudy 3300 ft
Overcast 4700 ft
Windchill 0 °F
Dew Point 8 °F
Humidity 81%
Rainfall 0.25 in
Snow Depth Not available.
UV 0 out of 12
Pollen .10 out of 12
Air Quality Not available.
Flu Activity Not available.
METAR KTOP 020153Z AUTO 32017G27KT 7SM -SN FEW024 BKN033 OVC047 M11/M14 A3025 RMK AO2 PK WND 31029/0104 UPB37E39SNE37B49 SLP255 P0000 T11061144

More Conditions Fewer Conditions

Pressure 30.29 in
Visibility 7.0 miles
Clouds Few 2400 ft
Mostly Cloudy 3300 ft
Overcast 4700 ft
Windchill 0 °F
Dew Point 8 °F
Humidity 81%
Rainfall 0.25 in
Snow Depth Not available.
UV 0 out of 12
Pollen .10 out of 12
Air Quality Not available.
Flu Activity Not available.
METAR KTOP 020153Z AUTO 32017G27KT 7SM -SN FEW024 BKN033 OVC047 M11/M14 A3025 RMK AO2 PK WND 31029/0104 UPB37E39SNE37B49 SLP255 P0000 T11061144

More Conditions Fewer Conditions

10-Day Weather Forecast

Almanac

Astronomy

Feb. 01, 2015 Rise Set
Actual Time
Civil Twilight
Nautical Twilight
Astronomical Twilight
Moon
Length of Visible Light
Length of Day
Tomorrow will be .
, % of the Moon is Illuminated

Today's Extremes

State Highs State Lows

Community

WunderPhotos

Upload Photos

1,792,659 photos uploaded!

WunderBlogs® & News

Nearby

Air Quality

  Air Quality AQ Index Pollutant
Not available.

Snow Depth

Station Depth Elevation

Earthquake Activity

City Distance Mag. Time & Date
Minimum magnitude displayed is 2.5.

Coastal Water Temperatures

Place Temperature

Nearby Weather Stations